createdAt,value
2023-03-15T18:16:22.442Z,35.53
2023-03-15T18:18:24.368Z,35.88
2023-03-15T18:20:26.259Z,30.58
2023-03-15T18:22:28.168Z,35.90
2023-03-15T18:24:31.755Z,31.77
2023-03-15T18:26:33.635Z,33.90
2023-03-15T18:28:35.634Z,32.60
2023-03-15T18:30:37.681Z,38.17
2023-03-15T18:32:39.606Z,34.58
2023-03-15T18:34:41.581Z,36.17
2023-03-15T18:36:43.524Z,37.95
2023-03-15T18:38:46.014Z,39.85
2023-03-15T18:40:48.024Z,38.63
2023-03-15T18:42:50.416Z,42.22
2023-03-15T18:44:52.336Z,42.30
2023-03-15T18:46:54.220Z,45.50
2023-03-15T18:48:56.168Z,44.30
2023-03-15T18:50:58.023Z,44.30
2023-03-15T18:53:00.228Z,49.42
2023-03-15T18:55:02.399Z,45.10
2023-03-15T18:59:06.848Z,44.05
2023-03-15T19:03:11.909Z,45.78
2023-03-15T19:05:14.582Z,37.10
2023-03-15T19:07:16.668Z,42.30
2023-03-15T19:11:21.947Z,42.80
2023-03-15T19:13:23.935Z,47.20
2023-03-15T19:15:25.815Z,47.25
2023-03-15T19:17:27.961Z,47.20
2023-03-15T19:21:31.904Z,45.80
2023-03-15T19:23:34.718Z,45.13
2023-03-15T19:25:36.666Z,45.78
2023-03-15T19:27:38.727Z,45.40
2023-03-15T19:29:41.157Z,40.10
2023-03-15T19:31:43.048Z,44.05
2023-03-15T19:33:44.988Z,38.03
2023-03-15T19:35:46.930Z,42.35
2023-03-15T19:37:49.379Z,38.28
2023-03-15T19:39:51.476Z,43.33
2023-03-15T19:43:55.233Z,43.10
2023-03-15T19:45:57.175Z,45.65
2023-03-15T19:47:59.149Z,52.20
2023-03-15T19:50:02.064Z,50.00
2023-03-15T19:52:04.314Z,49.35
2023-03-15T19:54:06.259Z,50.08
2023-03-15T19:56:09.592Z,47.50
2023-03-15T19:58:11.496Z,62.75
2023-03-15T20:00:16.280Z,47.53
2023-03-15T20:02:18.321Z,47.00
2023-03-15T20:04:20.525Z,43.00
2023-03-15T20:06:22.529Z,47.08
2023-03-15T20:08:26.317Z,48.38
2023-03-15T20:10:28.405Z,45.90
2023-03-15T20:12:32.303Z,54.70
2023-03-15T20:14:35.072Z,87.50
2023-03-15T20:16:37.042Z,49.80
2023-03-15T20:18:39.093Z,45.55
2023-03-15T20:20:41.080Z,49.83
2023-03-15T20:24:45.566Z,57.35
2023-03-15T20:28:49.346Z,55.50
2023-03-15T20:30:51.295Z,45.97
2023-03-15T20:32:53.678Z,62.25
2023-03-15T20:34:57.595Z,57.00
2023-03-15T20:36:59.942Z,48.95
2023-03-15T20:39:02.026Z,52.05
2023-03-15T20:43:06.507Z,54.80
2023-03-15T20:45:10.154Z,57.15
2023-03-15T20:47:12.009Z,63.97
2023-03-15T20:49:14.890Z,59.83
2023-03-15T20:51:16.775Z,58.55
2023-03-15T20:53:19.596Z,57.90
2023-03-15T20:55:21.494Z,69.88
2023-03-15T20:57:23.379Z,63.03
2023-03-15T20:59:25.449Z,79.93
2023-03-15T21:01:27.406Z,89.32
2023-03-15T21:03:31.397Z,68.45
2023-03-15T21:05:33.640Z,65.07
2023-03-15T21:07:35.946Z,62.22
2023-03-15T21:09:37.853Z,58.45
2023-03-15T21:11:39.732Z,58.10
2023-03-15T21:13:44.836Z,59.67
2023-03-15T21:15:46.898Z,63.33
2023-03-15T21:21:53.385Z,65.45
2023-03-15T21:23:55.458Z,66.40
2023-03-15T21:28:05.184Z,74.35
2023-03-15T21:30:08.184Z,69.57
2023-03-15T21:32:10.106Z,68.95
2023-03-15T21:34:12.245Z,61.60
2023-03-15T21:36:14.119Z,59.15
2023-03-15T21:38:16.201Z,61.55
2023-03-15T21:42:20.144Z,65.50
2023-03-15T21:46:23.944Z,58.88
2023-03-15T21:48:25.842Z,57.47
2023-03-15T21:50:28.171Z,64.60
2023-03-15T21:52:30.044Z,59.55
2023-03-15T21:54:31.900Z,57.83
2023-03-15T21:56:33.818Z,59.03
2023-03-15T21:58:35.783Z,58.55
2023-03-15T22:00:38.208Z,58.15
2023-03-15T22:02:40.186Z,53.20
2023-03-15T22:04:42.607Z,57.95
2023-03-15T22:06:44.553Z,54.35
2023-03-15T22:08:46.492Z,59.35
2023-03-15T22:10:52.515Z,53.20
2023-03-15T22:12:54.543Z,52.10
2023-03-15T22:15:05.165Z,55.13
2023-03-15T22:17:07.866Z,51.65
2023-03-15T22:21:12.144Z,49.67
2023-03-15T22:23:13.997Z,49.15
2023-03-15T22:25:16.233Z,46.95
2023-03-15T22:27:18.231Z,46.30
2023-03-15T22:29:20.321Z,45.53
2023-03-15T22:33:24.050Z,58.22
2023-03-15T22:35:26.188Z,46.83
2023-03-15T22:39:32.008Z,45.75
2023-03-15T22:41:34.181Z,40.95
2023-03-15T22:43:38.055Z,35.10
2023-03-15T22:45:40.908Z,41.97
2023-03-15T22:47:43.825Z,50.28
2023-03-15T22:49:46.294Z,44.60
2023-03-15T22:51:48.256Z,43.00
2023-03-15T22:53:50.260Z,44.58
2023-03-15T22:55:52.136Z,43.80
2023-03-15T22:57:54.228Z,50.22
2023-03-15T23:01:59.482Z,51.13
2023-03-15T23:06:03.974Z,61.00
2023-03-15T23:08:06.626Z,65.15
2023-03-15T23:10:09.522Z,58.70
2023-03-15T23:12:11.721Z,47.92
2023-03-15T23:14:13.716Z,52.28
2023-03-15T23:16:17.438Z,45.05
2023-03-15T23:18:20.030Z,47.45
2023-03-15T23:20:23.043Z,49.55
2023-03-15T23:22:25.030Z,46.58
2023-03-15T23:24:27.822Z,54.40
2023-03-15T23:26:29.691Z,52.38
2023-03-15T23:28:32.465Z,52.83
2023-03-15T23:30:36.192Z,47.83
2023-03-15T23:32:38.422Z,50.72
2023-03-15T23:34:43.029Z,54.80
2023-03-15T23:36:45.453Z,63.15
2023-03-15T23:38:48.804Z,63.45
2023-03-15T23:40:58.132Z,65.28
2023-03-15T23:43:00.457Z,64.22
2023-03-15T23:45:02.316Z,65.50
2023-03-15T23:47:05.753Z,66.65
2023-03-15T23:49:08.792Z,66.55
2023-03-15T23:51:12.668Z,65.30
2023-03-15T23:53:14.630Z,64.32
2023-03-15T23:55:16.562Z,67.97
2023-03-15T23:57:18.523Z,63.88
2023-03-15T23:59:22.367Z,61.63
